Stations météo

réclame
Mon MeteoGroup
Palacios de la Sierra, Espagne (8149): Température de l'air & dewpoint: 21.04.2018 10:00:00 - 27.04.2018 10:00:00 (CEST)Palacios de la Sierra, Espagne (8149): Vitesse du vent & gusts: 21.04.2018 10:00:00 - 27.04.2018 10:00:00 (CEST)Palacios de la Sierra, Espagne (8149): Direction du vent: 21.04.2018 10:00:00 - 27.04.2018 10:00:00 (CEST)Palacios de la Sierra, Espagne (8149): visibility: 21.04.2018 10:00:00 - 27.04.2018 10:00:00 (CEST)Palacios de la Sierra, Espagne (8149): Ensoleillement: 21.04.2018 10:00:00 - 27.04.2018 10:00:00 (CEST)Palacios de la Sierra, Espagne (8149): Quantités de précipitations: 21.04.2018 10:00:00 - 27.04.2018 10:00:00 (CEST)
Date & Time tt [°C] td [°C] ff [km/h] ff [knt] fx [km/h] fx [knt] dd vv [km] sd [min] rr [mm]
27.04.2018 10:00:00 - - - - - - - - - -
27.04.2018 09:00:00 10,6 9,2 2 1 9 5 NE 14 30 0,0
27.04.2018 08:00:00 8,7 7,6 3 1 10 6 SE 11 0 -
27.04.2018 07:00:00 9,2 8,0 8 4 12 6 S 12 0 0,0
27.04.2018 06:00:00 9,8 8,4 6 3 10 6 SE 16 0 0,0
27.04.2018 05:00:00 9,7 8,5 5 3 19 10 ESE 11 0 1,8
27.04.2018 04:00:00 9,9 7,8 10 5 15 8 S 20 0 0,0
27.04.2018 03:00:00 9,7 7,7 8 4 27 14 SW 20 0 3,8
27.04.2018 02:00:00 9,8 5,8 7 4 15 8 S 20 0 -
27.04.2018 01:00:00 10,2 5,6 7 4 16 9 S 20 0 0,0
27.04.2018 00:00:00 11,4 5,9 4 2 10 5 SSE 20 0 0,0
26.04.2018 23:00:00 12,6 5,8 8 4 11 6 S 20 0 0,0
26.04.2018 22:00:00 14,8 6,1 3 2 14 8 W 20 0 0,0
26.04.2018 21:00:00 17,7 5,6 8 4 21 12 W 20 42 0,0
26.04.2018 20:00:00 20,1 5,8 15 8 31 17 WNW 20 60 -
26.04.2018 19:00:00 21,5 7,3 15 8 33 18 WNW 20 41 0,0
26.04.2018 18:00:00 21,8 7,6 16 9 33 18 WNW 20 23 0,0
26.04.2018 17:00:00 21,4 8,3 14 8 31 17 NW 20 41 0,0
26.04.2018 16:00:00 22,6 6,7 14 8 29 16 WNW 20 52 0,0
26.04.2018 15:00:00 22,5 7,4 10 5 32 18 WNW 20 60 0,0
26.04.2018 14:00:00 20,4 9,0 13 7 27 14 NW 20 60 -
26.04.2018 13:00:00 19,0 7,1 9 5 18 10 WNW 20 60 0,0
26.04.2018 12:00:00 17,1 8,5 6 3 13 7 NW 20 60 0,0
26.04.2018 11:00:00 14,6 7,0 3 2 9 5 NNW 19 60 0,0
26.04.2018 10:00:00 11,8 5,5 4 2 9 5 NNW 20 60 0,0
26.04.2018 09:00:00 8,6 5,0 2 1 6 3 WNW 20 60 0,0
26.04.2018 08:00:00 5,0 3,0 1 1 5 3 E 20 18 -
26.04.2018 07:00:00 4,3 2,3 3 2 4 2 W 20 0 0,0
26.04.2018 06:00:00 5,8 3,0 1 1 7 4 WNW 20 0 0,0
26.04.2018 05:00:00 6,9 3,8 2 1 10 6 NNE 20 0 0,0
26.04.2018 04:00:00 8,4 3,9 3 1 14 7 SE 20 0 0,0
26.04.2018 03:00:00 8,7 4,1 5 3 21 11 E 20 0 0,0
26.04.2018 02:00:00 9,8 4,3 9 5 18 10 E 20 0 -
26.04.2018 01:00:00 10,8 5,0 6 4 20 11 ESE 20 0 0,0
26.04.2018 00:00:00 10,9 5,3 7 4 15 8 S 20 0 0,0
25.04.2018 23:00:00 11,8 5,9 9 5 18 10 SE 20 0 0,0
25.04.2018 22:00:00 12,9 6,7 6 3 21 11 S 20 0 0,0
25.04.2018 21:00:00 15,5 7,7 8 4 36 19 SSW 20 34 0,0
25.04.2018 20:00:00 18,1 8,7 23 13 33 18 ESE 14 46 -
25.04.2018 19:00:00 21,9 8,0 16 9 37 20 E 20 30 0,0
25.04.2018 18:00:00 23,1 6,4 8 5 50 27 ENE 20 36 0,0
25.04.2018 17:00:00 24,6 5,3 16 9 34 18 NW 20 58 0,0
25.04.2018 16:00:00 24,9 2,9 10 6 21 12 NNW 20 59 0,0
25.04.2018 15:00:00 25,0 3,6 5 3 18 10 S 20 60 0,0
25.04.2018 14:00:00 24,4 1,3 9 5 18 10 SW 20 60 -
25.04.2018 13:00:00 23,2 4,1 7 4 16 9 NNE 20 60 0,0
25.04.2018 12:00:00 21,9 8,4 3 2 9 5 SW 20 60 0,0
25.04.2018 11:00:00 19,6 7,3 2 1 14 7 SSE 20 60 0,0
25.04.2018 10:00:00 15,0 7,3 4 2 9 5 ESE 20 60 0,0
25.04.2018 09:00:00 10,3 6,7 3 2 16 8 E 20 60 0,0
25.04.2018 08:00:00 7,1 4,6 2 1 13 7 SE 16 12 -
25.04.2018 07:00:00 7,1 5,3 5 3 15 8 ESE 20 0 0,0
25.04.2018 06:00:00 7,9 6,1 11 6 17 9 S 20 0 0,0
25.04.2018 05:00:00 8,0 5,6 12 6 17 9 S 20 0 0,0
25.04.2018 04:00:00 9,1 6,2 5 3 15 8 SE 20 0 0,0
25.04.2018 03:00:00 10,4 6,7 4 2 17 9 SE 20 0 0,0
25.04.2018 02:00:00 11,3 7,0 8 4 17 9 S 20 0 -
25.04.2018 01:00:00 13,0 7,3 8 4 19 11 SE 20 0 0,0
25.04.2018 00:00:00 13,0 7,4 5 3 10 6 E 20 0 0,0
24.04.2018 23:00:00 15,1 7,1 2 1 10 6 NNW 20 0 0,0
24.04.2018 22:00:00 17,9 6,7 7 4 14 8 S 20 0 0,0
24.04.2018 21:00:00 19,8 2,1 10 5 23 12 ESE 20 21 0,0
24.04.2018 20:00:00 22,6 2,7 12 6 23 12 SE 20 21 -
24.04.2018 19:00:00 23,1 0,9 7 4 23 12 SE 20 33 0,0
24.04.2018 18:00:00 23,6 2,5 11 6 26 14 E 20 47 0,0
24.04.2018 17:00:00 23,6 3,4 10 5 22 12 E 20 47 0,0
24.04.2018 16:00:00 23,6 3,9 8 4 29 15 SE 20 56 0,0
24.04.2018 15:00:00 23,5 2,3 12 7 28 15 SE 20 60 0,0
24.04.2018 14:00:00 22,8 3,8 15 8 32 17 ESE 20 60 -
24.04.2018 13:00:00 21,6 2,9 16 8 31 17 E 4,4 60 0,0
24.04.2018 12:00:00 20,4 2,7 18 10 30 16 ESE 17 60 0,0
24.04.2018 11:00:00 19,0 6,4 14 7 26 14 E 20 60 0,0
24.04.2018 10:00:00 16,1 7,0 11 6 21 11 E 20 60 0,0
24.04.2018 09:00:00 11,3 6,2 1 1 9 5 WSW 20 60 0,0
24.04.2018 08:00:00 7,6 4,5 3 1 8 5 S 20 5 -
24.04.2018 07:00:00 7,7 4,3 1 1 16 9 E 20 0 0,0
24.04.2018 06:00:00 8,5 4,8 4 2 10 5 SE 20 0 0,0
24.04.2018 05:00:00 8,5 5,6 4 2 11 6 E 20 0 0,0
24.04.2018 04:00:00 9,6 5,6 2 1 16 8 NNE 20 0 0,0
24.04.2018 03:00:00 11,7 6,4 10 6 18 10 ESE 20 0 0,0
24.04.2018 02:00:00 11,1 6,8 5 3 13 7 E 20 0 -
24.04.2018 01:00:00 11,7 6,8 7 4 21 11 SE 20 0 0,0
24.04.2018 00:00:00 12,8 7,4 5 3 16 9 ESE 20 0 0,0
23.04.2018 23:00:00 14,3 8,0 11 6 21 12 ESE 20 0 0,0
23.04.2018 22:00:00 15,2 7,4 14 7 29 15 SE 20 0 0,0
23.04.2018 21:00:00 17,8 6,7 15 8 23 12 ESE 20 9 0,0
23.04.2018 20:00:00 19,7 6,4 10 6 25 13 SE 20 31 -
23.04.2018 19:00:00 20,9 6,1 10 6 31 17 SE 19 28 0,0
23.04.2018 18:00:00 22,9 3,4 10 5 19 11 E 20 59 0,0
23.04.2018 17:00:00 22,7 4,6 6 4 23 12 S 20 60 0,0
23.04.2018 16:00:00 21,8 5,3 10 5 18 10 E 20 60 0,0
23.04.2018 15:00:00 20,5 4,5 7 4 13 7 SE 20 54 0,0
23.04.2018 14:00:00 18,5 5,0 4 2 12 7 E 20 12 -
23.04.2018 13:00:00 17,7 4,3 5 3 10 6 ENE 20 0 0,0
23.04.2018 12:00:00 16,7 3,4 6 3 19 10 E 16 25 0,0
23.04.2018 11:00:00 15,6 3,8 10 5 18 10 ESE 20 49 0,0
23.04.2018 10:00:00 12,9 5,6 6 4 11 6 ESE 20 46 0,0
23.04.2018 09:00:00 8,4 6,1 2 1 14 8 SSE 20 7 0,0
23.04.2018 08:00:00 7,6 5,0 3 1 11 6 SE 20 0 -
23.04.2018 07:00:00 7,1 4,5 5 3 14 8 SSE 20 0 0,0
23.04.2018 06:00:00 8,1 5,0 4 2 12 6 S 20 0 0,0
23.04.2018 05:00:00 7,0 5,0 10 6 18 10 S 20 0 0,0
23.04.2018 04:00:00 8,2 5,5 6 3 13 7 ESE 20 0 0,0
23.04.2018 03:00:00 8,3 5,3 3 1 7 4 SE 20 0 0,0
23.04.2018 02:00:00 9,1 5,9 4 2 9 5 E 20 0 -
23.04.2018 01:00:00 10,4 7,1 5 3 16 8 SE 20 0 0,0
23.04.2018 00:00:00 12,2 7,1 6 4 22 12 SE 20 0 0,0
22.04.2018 23:00:00 12,5 8,4 9 5 23 12 ESE 20 0 0,0
22.04.2018 22:00:00 12,7 8,8 3 1 17 9 SSE 20 0 0,0
22.04.2018 21:00:00 13,1 8,9 13 7 37 20 WNW 20 0 0,0
22.04.2018 20:00:00 16,7 8,1 14 8 33 18 WNW 20 0 -
22.04.2018 19:00:00 17,7 7,1 3 2 20 11 SSE 20 0 0,0
22.04.2018 18:00:00 17,9 6,7 9 5 35 19 SW 20 0 0,0
22.04.2018 17:00:00 20,8 5,6 13 7 26 14 WSW 20 22 0,0
22.04.2018 16:00:00 21,7 4,6 10 5 30 16 S 17 60 0,0
22.04.2018 15:00:00 21,1 6,2 8 4 18 10 WNW 20 56 0,0
22.04.2018 14:00:00 19,6 4,5 4 2 11 6 E 20 60 -
22.04.2018 13:00:00 18,4 5,3 4 2 14 8 WNW 20 60 0,0
22.04.2018 12:00:00 16,8 6,2 9 5 14 8 N 20 60 0,0
22.04.2018 11:00:00 15,3 7,1 6 3 15 8 ENE 17 60 0,0
22.04.2018 10:00:00 11,9 6,5 2 1 5 3 ESE 20 60 0,0
22.04.2018 09:00:00 7,9 5,3 1 1 18 10 E 20 53 0,0
22.04.2018 08:00:00 5,6 3,8 3 2 13 7 SSE 18 0 -
22.04.2018 07:00:00 6,3 4,3 2 1 13 7 ESE 17 0 0,0
22.04.2018 06:00:00 7,0 4,5 4 2 11 6 SSE 19 0 0,0
22.04.2018 05:00:00 7,6 5,1 10 6 14 8 S 19 0 0,0
22.04.2018 04:00:00 8,2 5,3 3 2 5 3 SE 20 0 0,0
22.04.2018 03:00:00 8,8 5,5 2 1 7 4 SE 20 0 0,0
22.04.2018 02:00:00 8,9 5,5 5 3 12 6 E 20 0 -
22.04.2018 01:00:00 10,1 5,3 7 4 15 8 E 20 0 0,0
22.04.2018 00:00:00 10,6 4,6 5 3 9 5 E 20 0 0,0
21.04.2018 23:00:00 11,7 3,9 5 3 10 6 ESE 20 0 0,0
21.04.2018 22:00:00 13,4 3,4 7 4 16 8 SSE 20 0 0,0
21.04.2018 21:00:00 14,3 3,0 8 4 19 11 SE 20 0 0,0
21.04.2018 20:00:00 15,3 3,0 14 7 27 14 ESE 20 0 -
21.04.2018 19:00:00 15,8 2,5 10 5 31 17 ESE 20 0 0,0
21.04.2018 18:00:00 15,9 1,3 19 11 29 16 ESE 20 0 0,0
21.04.2018 17:00:00 16,0 1,7 14 8 26 14 ESE 20 0 0,0
21.04.2018 16:00:00 16,4 1,3 15 8 28 15 SE 20 10 0,0
21.04.2018 15:00:00 16,6 2,7 12 7 29 16 ESE 20 4 0,0
21.04.2018 14:00:00 15,8 2,9 17 9 34 19 ESE 20 6 -
21.04.2018 13:00:00 16,2 2,3 14 7 37 20 SSE 20 44 0,0
21.04.2018 12:00:00 15,4 1,9 18 10 34 19 SE 20 60 0,0
21.04.2018 11:00:00 13,8 3,0 24 13 37 20 ESE 20 60 0,0
21.04.2018 10:00:00 12,2 3,9 18 10 26 14 E 20 60 0,0

tt = Température de l'air
td = dewpoint
ff = Vitesse du vent
fx = gusts
dd = Direction du vent
vv = visibility
sd = Ensoleillement
rr = Quantités de précipitations

stations d'obs. à proximité